Terminal Aerodrome Forecast
Issued by NWS

Home | Current Version | Previous Version | Text Only | Print | Product List | Glossary On
Versions: 1 2 3 4 5 6 7 8 9 10 11 12 13
000
FTUS41 KCAR 190520
TAFPQI
TAF
KPQI 190520Z 1906/2006 31004KT P6SM BKN050
     FM191500 31008G15KT P6SM SCT050
     FM191800 30010KT P6SM FEW250
     FM200000 34004KT P6SM SKC
      AMD LTD TO CLD VIS AND WIND=

USA.gov is the U.S. government's official web portal to all federal, state and local government web resources and services.